Time;durP1;ratioP1;P1;durP2;ratioP2;P2;SDS_P1;SDS_P2;PMS_P1;PMS_P2;Temp;Humidity;BMP_temperature;BMP_pressure;BME280_temperature;BME280_humidity;BME280_pressure;Samples;Min_cycle;Max_cycle;Signal;HPM_P1;HPM_P2
2021/09/08 00:00:13;;;;;;;20.80;14.55;;;;;;;11.10;74.04;98049.87;1841100;77;26406;-92
2021/09/08 00:02:41;;;;;;;19.82;14.13;;;;;;;11.00;73.96;98043.97;1840791;77;25854;-93
2021/09/08 00:05:10;;;;;;;24.32;15.25;;;;;;;10.98;74.12;98046.89;1827573;76;28386;-90
2021/09/08 00:07:37;;;;;;;20.95;13.38;;;;;;;10.98;74.23;98048.25;1838470;77;26219;-91
2021/09/08 00:10:07;;;;;;;17.70;12.98;;;;;;;10.97;74.15;98051.97;1841143;77;25734;-93
2021/09/08 00:12:36;;;;;;;20.27;13.15;;;;;;;10.94;74.19;98052.36;1808175;77;25812;-94
2021/09/08 00:15:04;;;;;;;20.00;13.90;;;;;;;10.92;74.20;98064.39;1832374;77;25741;-95
2021/09/08 00:17:31;;;;;;;20.52;13.25;;;;;;;10.89;74.10;98058.86;1827512;77;28205;-96
2021/09/08 00:19:57;;;;;;;17.62;12.88;;;;;;;10.80;74.05;98059.54;1838444;77;25854;-96
2021/09/08 00:22:24;;;;;;;17.00;12.60;;;;;;;10.78;74.19;98063.46;1821740;77;25772;-94
2021/09/08 00:24:51;;;;;;;17.80;12.35;;;;;;;10.76;74.22;98066.35;1828286;77;26373;-91
2021/09/08 00:27:17;;;;;;;20.27;11.85;;;;;;;10.73;74.20;98065.42;1841454;77;26307;-94
2021/09/08 00:29:44;;;;;;;16.48;11.73;;;;;;;10.71;74.25;98062.59;1811288;77;27409;-94
2021/09/08 00:32:11;;;;;;;19.30;10.78;;;;;;;10.70;74.26;98060.41;1805670;77;26209;-95
2021/09/08 00:34:37;;;;;;;15.13;10.82;;;;;;;10.66;74.23;98065.03;1843098;77;25660;-95
2021/09/08 00:37:04;;;;;;;18.85;12.18;;;;;;;10.62;74.22;98063.77;1808563;77;25821;-88
2021/09/08 00:39:31;;;;;;;17.12;11.43;;;;;;;10.59;74.23;98065.50;1841520;77;26124;-96
2021/09/08 00:41:57;;;;;;;18.67;12.47;;;;;;;10.56;74.34;98059.14;1840960;77;27413;-94
2021/09/08 00:44:27;;;;;;;16.15;11.80;;;;;;;10.55;74.40;98058.30;1841464;77;25700;-94
2021/09/08 00:46:56;;;;;;;16.87;12.10;;;;;;;10.54;74.37;98054.44;1821227;76;25251;-92
2021/09/08 00:49:23;;;;;;;19.32;12.60;;;;;;;10.53;74.40;98055.47;1844646;77;25722;-87
2021/09/08 00:51:50;;;;;;;24.27;13.43;;;;;;;10.46;74.44;98052.22;1845100;77;25787;-94
2021/09/08 00:54:19;;;;;;;19.02;13.50;;;;;;;10.38;74.60;98059.11;1814823;77;27369;-92
2021/09/08 00:56:47;;;;;;;20.70;14.05;;;;;;;10.31;74.68;98059.55;1829345;77;25254;-91
2021/09/08 00:59:14;;;;;;;21.52;13.53;;;;;;;10.29;74.92;98058.91;1844992;77;25667;-94
2021/09/08 01:01:41;;;;;;;20.80;13.58;;;;;;;10.30;74.94;98067.84;1845047;77;25668;-93
2021/09/08 01:04:07;;;;;;;20.20;12.30;;;;;;;10.30;74.89;98065.97;1844942;77;25239;-95
2021/09/08 01:06:34;;;;;;;21.87;14.13;;;;;;;10.29;74.87;98064.30;1832806;77;28131;-96
2021/09/08 01:09:05;;;;;;;23.52;12.75;;;;;;;10.25;74.90;98067.59;1834223;77;25818;-90
2021/09/08 01:11:33;;;;;;;20.37;13.72;;;;;;;10.17;74.99;98063.11;1846026;77;25231;-89
2021/09/08 01:14:00;;;;;;;21.35;13.70;;;;;;;10.15;75.13;98066.52;1843916;77;25520;-92
2021/09/08 01:16:27;;;;;;;22.25;13.30;;;;;;;10.10;75.06;98059.53;1845624;77;25245;-95
2021/09/08 01:18:54;;;;;;;22.50;13.43;;;;;;;10.04;75.15;98062.98;1845007;77;27372;-88
2021/09/08 01:21:20;;;;;;;22.93;14.30;;;;;;;10.06;75.30;98067.67;1844769;77;25819;-91
2021/09/08 01:23:47;;;;;;;18.77;12.98;;;;;;;10.07;75.30;98063.95;1844899;77;25907;-92
2021/09/08 01:26:14;;;;;;;23.80;14.65;;;;;;;10.06;75.24;98065.81;1820939;77;25811;-94
2021/09/08 01:28:40;;;;;;;22.37;14.93;;;;;;;10.03;75.16;98064.00;1822409;77;25236;-95
2021/09/08 01:31:08;;;;;;;20.32;13.53;;;;;;;9.99;75.15;98069.48;1824219;77;27642;-92
2021/09/08 01:33:35;;;;;;;21.60;14.45;;;;;;;9.96;75.23;98064.46;1819640;77;25704;-94
2021/09/08 01:36:02;;;;;;;20.80;14.43;;;;;;;9.93;75.32;98060.79;1826615;77;25541;-95
2021/09/08 01:38:29;;;;;;;16.35;11.93;;;;;;;9.91;75.38;98058.28;1839725;77;25843;-96
2021/09/08 01:40:55;;;;;;;18.90;13.48;;;;;;;9.93;75.46;98057.58;1829584;77;25887;-96
2021/09/08 01:43:25;;;;;;;17.92;12.55;;;;;;;9.95;75.39;98059.58;1835097;77;27330;-92
2021/09/08 01:45:52;;;;;;;18.37;12.25;;;;;;;9.96;75.31;98061.77;1806183;77;25923;-95
2021/09/08 01:48:20;;;;;;;15.32;11.10;;;;;;;9.93;75.31;98060.79;1782767;77;25315;-94
2021/09/08 01:50:47;;;;;;;16.45;11.95;;;;;;;9.90;75.27;98059.84;1816925;78;25763;-94
2021/09/08 01:53:14;;;;;;;19.20;11.75;;;;;;;9.89;75.26;98062.22;1777736;78;25710;-95
2021/09/08 01:55:40;;;;;;;16.87;11.78;;;;;;;9.86;75.15;98055.85;1773363;78;28191;-95
2021/09/08 01:58:07;;;;;;;18.15;11.35;;;;;;;9.84;75.22;98060.59;1819953;77;25698;-94
2021/09/08 02:00:34;;;;;;;16.87;11.12;;;;;;;9.81;75.29;98056.41;1815032;77;25513;-93
2021/09/08 02:03:01;;;;;;;15.60;11.20;;;;;;;9.81;75.33;98059.11;1802182;77;25811;-94
2021/09/08 02:05:27;;;;;;;15.93;11.65;;;;;;;9.79;75.27;98061.66;1819826;77;25736;-84
2021/09/08 02:07:54;;;;;;;16.55;11.60;;;;;;;9.78;75.24;98066.22;1808247;78;27344;-94
2021/09/08 02:10:21;;;;;;;16.48;11.45;;;;;;;9.74;75.26;98071.18;1787635;77;25251;-94
2021/09/08 02:12:47;;;;;;;18.82;11.75;;;;;;;9.71;75.28;98072.90;1787571;77;25769;-94
2021/09/08 02:15:14;;;;;;;15.90;11.48;;;;;;;9.68;75.25;98066.53;1800167;77;25732;-93
2021/09/08 02:17:42;;;;;;;17.65;11.50;;;;;;;9.62;75.35;98068.66;1820043;78;25684;-95
2021/09/08 02:20:09;;;;;;;17.60;11.93;;;;;;;9.59;75.40;98067.67;1797898;77;27551;-95
2021/09/08 02:22:36;;;;;;;17.92;12.03;;;;;;;9.55;75.46;98063.67;1800209;78;26141;-94
2021/09/08 02:25:03;;;;;;;18.70;11.25;;;;;;;9.54;75.59;98067.39;1817609;77;25738;-93
2021/09/08 02:27:30;;;;;;;19.77;12.78;;;;;;;9.55;75.61;98066.38;1802545;78;25685;-93
2021/09/08 02:29:56;;;;;;;21.68;12.40;;;;;;;9.56;75.67;98062.66;1791987;77;25808;-90
2021/09/08 02:32:23;;;;;;;17.27;11.48;;;;;;;9.55;75.67;98063.67;1819074;77;27415;-92
2021/09/08 02:34:49;;;;;;;18.60;12.23;;;;;;;9.56;75.58;98061.31;1818948;78;25629;-91
2021/09/08 02:37:17;;;;;;;18.05;11.83;;;;;;;9.54;75.61;98058.50;1819264;78;25765;-91
2021/09/08 02:39:43;;;;;;;19.25;11.95;;;;;;;9.52;75.61;98051.11;1819480;78;25796;-94
2021/09/08 02:42:11;;;;;;;15.63;11.08;;;;;;;9.52;75.63;98051.11;1814502;77;25697;-93
2021/09/08 02:44:37;;;;;;;16.25;11.55;;;;;;;9.50;75.62;98052.64;1812287;78;27465;-92
2021/09/08 02:47:04;;;;;;;15.30;11.00;;;;;;;9.49;75.60;98057.70;1811200;77;26040;-94
2021/09/08 02:49:30;;;;;;;19.67;11.50;;;;;;;9.47;75.58;98053.02;1803528;78;25230;-90
2021/09/08 02:51:57;;;;;;;13.30;10.32;;;;;;;9.45;75.58;98048.83;1836359;78;26280;-95
2021/09/08 02:54:24;;;;;;;17.52;11.53;;;;;;;9.41;75.60;98046.20;1822250;77;25702;-93
2021/09/08 02:56:50;;;;;;;16.17;11.33;;;;;;;9.39;75.56;98050.44;1836283;78;28336;-94
2021/09/08 02:59:17;;;;;;;18.87;11.63;;;;;;;9.29;75.51;98041.81;1836082;78;25787;-94
2021/09/08 03:01:43;;;;;;;16.25;10.60;;;;;;;9.34;75.54;98048.80;1832848;78;25297;-94
2021/09/08 03:04:10;;;;;;;15.38;11.60;;;;;;;9.31;75.56;98051.36;1803349;78;26423;-89
2021/09/08 03:06:37;;;;;;;20.90;12.40;;;;;;;9.30;75.63;98049.68;1826246;78;25672;-94
2021/09/08 03:09:04;;;;;;;17.40;11.35;;;;;;;9.27;75.64;98049.25;1813497;78;27413;-91
2021/09/08 03:11:30;;;;;;;17.12;11.83;;;;;;;9.22;75.74;98048.95;1836053;78;25768;-94
2021/09/08 03:13:57;;;;;;;15.32;11.55;;;;;;;9.18;75.81;98051.69;1836233;78;25716;-94
2021/09/08 03:16:23;;;;;;;16.10;11.65;;;;;;;9.17;75.94;98056.27;1836322;78;25697;-91
2021/09/08 03:18:50;;;;;;;16.85;12.55;;;;;;;9.17;76.05;98056.78;1836264;78;26264;-94
2021/09/08 03:21:17;;;;;;;17.42;12.10;;;;;;;9.18;76.08;98054.38;1833705;78;27505;-94
2021/09/08 03:23:43;;;;;;;13.70;10.20;;;;;;;9.16;76.00;98059.98;1815877;78;25627;-94
2021/09/08 03:26:10;;;;;;;18.50;10.93;;;;;;;9.11;75.89;98058.34;1836219;78;26255;-94
2021/09/08 03:28:37;;;;;;;16.17;10.45;;;;;;;9.10;76.00;98055.84;1803382;78;26472;-94
2021/09/08 03:31:03;;;;;;;18.60;11.18;;;;;;;9.09;76.00;98059.55;1823304;78;25720;-91
2021/09/08 03:33:30;;;;;;;17.62;11.25;;;;;;;9.07;75.97;98058.89;1836172;78;27178;-93
2021/09/08 03:35:56;;;;;;;22.37;11.73;;;;;;;9.03;75.96;98053.91;1836000;78;25774;-94
2021/09/08 03:38:23;;;;;;;18.40;11.20;;;;;;;9.03;76.01;98057.94;1812729;78;25820;-94
2021/09/08 03:40:50;;;;;;;16.02;11.40;;;;;;;9.05;76.04;98055.58;1836287;78;25828;-93
2021/09/08 03:43:16;;;;;;;17.90;10.88;;;;;;;9.03;75.99;98059.29;1836259;78;25757;-89
2021/09/08 03:45:43;;;;;;;15.30;11.28;;;;;;;9.02;75.93;98055.43;1825461;78;27409;-95
2021/09/08 03:48:09;;;;;;;14.50;11.15;;;;;;;9.00;75.95;98058.30;1795955;77;25810;-95
2021/09/08 03:50:36;;;;;;;16.07;10.90;;;;;;;9.00;75.96;98056.13;1819392;77;25618;-91
2021/09/08 03:53:03;;;;;;;14.95;10.43;;;;;;;8.96;75.98;98061.03;1807892;77;25771;-94
2021/09/08 03:55:30;;;;;;;17.60;10.95;;;;;;;8.93;76.01;98056.05;1841279;77;25645;-94
2021/09/08 03:57:56;;;;;;;14.18;9.70;;;;;;;8.89;76.04;98053.38;1833985;77;27397;-93
2021/09/08 04:00:23;;;;;;;17.00;10.93;;;;;;;8.86;76.05;98051.05;1815328;77;25778;-92
2021/09/08 04:02:50;;;;;;;15.13;10.53;;;;;;;8.85;76.13;98051.23;1840979;77;25738;-89
2021/09/08 04:05:17;;;;;;;18.05;10.60;;;;;;;8.85;76.17;98056.11;1841120;76;25841;-92
2021/09/08 04:07:43;;;;;;;15.98;11.08;;;;;;;8.83;76.16;98057.30;1841096;77;25767;-91
2021/09/08 04:10:11;;;;;;;15.03;10.90;;;;;;;8.79;76.15;98059.55;1841070;77;27416;-92
2021/09/08 04:12:37;;;;;;;18.32;10.93;;;;;;;8.75;76.24;98064.97;1840854;77;25750;-90
2021/09/08 04:15:05;;;;;;;15.63;10.95;;;;;;;8.79;76.33;98064.09;1825990;77;25941;-92
2021/09/08 04:17:32;;;;;;;18.23;12.05;;;;;;;8.78;76.26;98062.42;1823641;77;25691;-91
2021/09/08 04:19:58;;;;;;;15.88;11.88;;;;;;;8.77;76.37;98066.97;1836685;77;25748;-89
2021/09/08 04:22:25;;;;;;;15.23;10.88;;;;;;;8.75;76.44;98073.05;1840938;77;27352;-89
2021/09/08 04:24:52;;;;;;;23.22;11.65;;;;;;;8.73;76.45;98076.42;1829030;77;25727;-89
2021/09/08 04:27:18;;;;;;;19.37;11.80;;;;;;;8.72;76.54;98074.75;1815473;77;25264;-89
2021/09/08 04:29:45;;;;;;;16.97;11.73;;;;;;;8.70;76.56;98068.70;1840910;76;25769;-89
2021/09/08 04:32:11;;;;;;;19.57;12.45;;;;;;;8.68;76.63;98073.46;1841066;77;25797;-89
2021/09/08 04:34:38;;;;;;;19.17;12.60;;;;;;;8.72;76.74;98073.41;1809056;77;28072;-91
2021/09/08 04:37:04;;;;;;;18.37;11.85;;;;;;;8.77;76.78;98074.20;1815656;77;25655;-92
2021/09/08 04:39:31;;;;;;;16.50;11.57;;;;;;;8.80;76.78;98076.03;1841069;77;26351;-93
2021/09/08 04:41:58;;;;;;;18.85;11.05;;;;;;;8.80;76.73;98069.81;1840668;77;25736;-92
2021/09/08 04:44:24;;;;;;;16.90;11.85;;;;;;;8.79;76.74;98075.70;1841140;77;25754;-91
2021/09/08 04:46:51;;;;;;;19.30;11.78;;;;;;;8.79;76.77;98073.02;1807914;77;27470;-91
2021/09/08 04:49:18;;;;;;;22.42;13.78;;;;;;;8.83;76.83;98074.30;1821570;77;25674;-92
2021/09/08 04:51:45;;;;;;;21.65;14.05;;;;;;;8.84;76.87;98077.31;1794136;77;25747;-91
2021/09/08 04:54:12;;;;;;;26.70;16.10;;;;;;;8.86;76.92;98067.72;1797314;77;26668;-91
2021/09/08 04:56:39;;;;;;;24.70;15.05;;;;;;;8.90;76.97;98072.55;1835447;77;25689;-88
2021/09/08 04:59:05;;;;;;;22.90;14.83;;;;;;;8.93;77.13;98073.55;1841111;77;27344;-93
2021/09/08 05:01:32;;;;;;;19.65;13.10;;;;;;;8.98;77.19;98070.27;1840893;77;26294;-92
2021/09/08 05:03:59;;;;;;;23.02;15.20;;;;;;;9.02;77.25;98068.39;1824696;77;25734;-88
2021/09/08 05:06:25;;;;;;;29.15;18.25;;;;;;;9.08;77.29;98065.95;1824970;77;25677;-90
2021/09/08 05:08:52;;;;;;;48.48;29.70;;;;;;;9.10;77.39;98070.65;1841219;77;25766;-92
2021/09/08 05:11:18;;;;;;;51.33;32.85;;;;;;;9.11;77.49;98068.28;1814524;77;27346;-92
2021/09/08 05:13:45;;;;;;;41.37;26.70;;;;;;;9.15;77.61;98069.59;1816559;77;25742;-87
2021/09/08 05:16:12;;;;;;;40.52;23.25;;;;;;;9.17;77.76;98071.59;1837113;77;25664;-92
2021/09/08 05:18:38;;;;;;;33.13;20.65;;;;;;;9.19;77.82;98071.70;1822012;77;25828;-92
2021/09/08 05:21:05;;;;;;;27.00;18.30;;;;;;;9.21;77.93;98076.41;1812464;77;25803;-91
2021/09/08 05:23:32;;;;;;;25.35;16.42;;;;;;;9.27;77.96;98068.10;1826715;77;27324;-90
2021/09/08 05:25:58;;;;;;;26.30;17.30;;;;;;;9.34;78.04;98069.02;1763133;80;25697;-89
2021/09/08 05:28:25;;;;;;;24.82;17.20;;;;;;;9.40;78.08;98069.62;1771436;79;25788;-83
2021/09/08 05:30:52;;;;;;;28.73;17.40;;;;;;;9.48;78.12;98071.37;1773643;80;25640;-94
2021/09/08 05:33:18;;;;;;;25.68;16.77;;;;;;;9.53;78.12;98079.23;1763491;79;25645;-91
2021/09/08 05:35:45;;;;;;;23.70;17.25;;;;;;;9.60;78.18;98086.87;1797799;78;27399;-92
2021/09/08 05:38:12;;;;;;;27.55;17.07;;;;;;;9.68;78.18;98088.09;1767701;78;25713;-89
2021/09/08 05:40:38;;;;;;;25.37;16.80;;;;;;;9.75;78.18;98080.94;1813235;77;25742;-89
2021/09/08 05:43:05;;;;;;;29.10;16.85;;;;;;;9.83;78.21;98083.19;1796840;79;25664;-92
2021/09/08 05:45:31;;;;;;;27.48;16.87;;;;;;;9.90;78.28;98076.03;1763126;80;25849;-90
2021/09/08 05:47:58;;;;;;;27.75;17.20;;;;;;;9.97;78.31;98080.97;1795749;78;28210;-93
2021/09/08 05:50:25;;;;;;;32.53;18.37;;;;;;;10.04;78.32;98079.16;1786056;78;25627;-94
2021/09/08 05:52:51;;;;;;;26.15;16.57;;;;;;;10.11;78.30;98080.09;1786259;78;26411;-93
2021/09/08 05:55:18;;;;;;;25.35;16.20;;;;;;;10.17;78.44;98076.60;1783367;78;26350;-88
2021/09/08 05:57:45;;;;;;;24.40;15.83;;;;;;;10.23;78.51;98075.88;1789017;78;25632;-93
2021/09/08 06:00:13;;;;;;;29.07;17.12;;;;;;;10.30;78.57;98074.06;1781146;78;26915;-93
2021/09/08 06:02:40;;;;;;;25.82;17.15;;;;;;;10.40;78.62;98078.62;1779823;79;25687;-92
2021/09/08 06:05:08;;;;;;;25.10;17.02;;;;;;;10.50;78.71;98070.73;1781720;78;25735;-93
2021/09/08 06:07:35;;;;;;;25.27;16.37;;;;;;;10.58;78.82;98073.28;1788244;78;25740;-81
2021/09/08 06:10:01;;;;;;;27.00;17.65;;;;;;;10.67;78.80;98075.64;1784120;78;26357;-94
2021/09/08 06:12:28;;;;;;;28.60;17.85;;;;;;;10.77;78.88;98069.89;1790745;78;27358;-93
2021/09/08 06:14:54;;;;;;;29.52;19.30;;;;;;;10.84;78.94;98073.49;1777790;78;25768;-92
2021/09/08 06:17:21;;;;;;;25.48;19.02;;;;;;;10.95;78.99;98073.45;1803467;77;25879;-93
2021/09/08 06:19:47;;;;;;;28.05;17.95;;;;;;;11.03;79.16;98077.34;1833294;77;25882;-90
2021/09/08 06:22:14;;;;;;;25.15;16.73;;;;;;;11.13;79.22;98073.25;1804892;78;25725;-88
2021/09/08 06:24:41;;;;;;;25.92;16.75;;;;;;;11.25;79.33;98072.69;1795181;79;27535;-93
2021/09/08 06:27:07;;;;;;;27.10;16.37;;;;;;;11.37;79.45;98075.16;1792726;79;25908;-88
2021/09/08 06:29:34;;;;;;;23.65;16.30;;;;;;;11.47;79.43;98068.89;1798602;78;25697;-92
2021/09/08 06:32:00;;;;;;;27.80;18.37;;;;;;;11.57;79.40;98073.40;1806293;78;25921;-92
2021/09/08 06:34:27;;;;;;;35.43;19.37;;;;;;;11.68;79.38;98067.41;1792804;78;25808;-92
2021/09/08 06:36:53;;;;;;;37.40;22.02;;;;;;;11.82;79.31;98071.03;1781337;78;28319;-92
2021/09/08 06:39:22;;;;;;;37.38;22.27;;;;;;;11.93;79.32;98064.20;1800691;78;25871;-93
2021/09/08 06:41:49;;;;;;;45.67;25.37;;;;;;;12.06;79.25;98065.59;1798734;78;25698;-89
2021/09/08 06:44:17;;;;;;;58.00;29.63;;;;;;;12.19;79.32;98068.32;1800879;78;25909;-88
2021/09/08 06:46:44;;;;;;;64.35;29.48;;;;;;;12.32;79.32;98059.39;1793402;79;25794;-92
2021/09/08 06:49:10;;;;;;;48.78;25.32;;;;;;;12.45;79.25;98065.63;1779279;78;27532;-94
2021/09/08 06:51:37;;;;;;;47.00;26.02;;;;;;;12.57;79.21;98056.36;1765840;78;25870;-92
2021/09/08 06:54:04;;;;;;;44.05;23.87;;;;;;;12.70;79.13;98053.65;1795880;79;25447;-92
2021/09/08 06:56:32;;;;;;;46.88;25.70;;;;;;;12.83;79.11;98062.29;1795439;78;26623;-91
2021/09/08 06:58:58;;;;;;;47.45;26.00;;;;;;;12.95;79.25;98056.55;1786347;79;25691;-93
2021/09/08 07:01:25;;;;;;;48.38;26.07;;;;;;;13.09;79.34;98060.91;1774333;78;27468;-92
2021/09/08 07:03:52;;;;;;;42.35;24.63;;;;;;;13.24;79.50;98054.77;1764046;79;25724;-92
2021/09/08 07:06:22;;;;;;;27.27;17.85;;;;;;;13.37;79.50;98059.32;1767575;78;25505;-92
2021/09/08 07:08:47;;;;;;;22.98;15.93;;;;;;;13.48;79.36;98055.94;1780962;78;26140;-90
2021/09/08 07:11:13;;;;;;;25.52;17.00;;;;;;;13.64;79.38;98058.16;1768771;79;25791;-92
2021/09/08 07:13:40;;;;;;;22.50;14.65;;;;;;;13.77;79.37;98054.55;1777870;79;28121;-91
2021/09/08 07:16:07;;;;;;;23.55;14.87;;;;;;;13.91;79.24;98050.73;1793973;79;25717;-92
2021/09/08 07:18:33;;;;;;;22.07;15.28;;;;;;;14.09;79.17;98051.91;1763976;79;25293;-91
2021/09/08 07:21:00;;;;;;;23.50;14.20;;;;;;;14.24;79.10;98049.20;1781493;78;26303;-91
2021/09/08 07:23:27;;;;;;;22.27;13.80;;;;;;;14.39;78.92;98052.45;1763957;79;25300;-90
2021/09/08 07:25:54;;;;;;;22.27;14.60;;;;;;;14.56;78.79;98050.56;1767645;78;27412;-90
2021/09/08 07:28:20;;;;;;;23.60;14.10;;;;;;;14.73;78.51;98048.41;1775190;79;25837;-91
2021/09/08 07:30:48;;;;;;;18.42;13.83;;;;;;;14.94;78.25;98046.38;1783307;78;25807;-92
2021/09/08 07:33:15;;;;;;;21.70;13.90;;;;;;;15.19;78.00;98046.33;1773048;79;25860;-94
2021/09/08 07:35:42;;;;;;;19.17;12.88;;;;;;;15.49;77.78;98046.71;1793043;78;25786;-92
2021/09/08 07:38:08;;;;;;;20.25;12.98;;;;;;;15.85;77.27;98043.69;1782884;79;27350;-92
2021/09/08 07:40:35;;;;;;;18.65;13.98;;;;;;;16.25;76.84;98037.70;1795436;78;25743;-91
2021/09/08 07:43:01;;;;;;;21.48;12.75;;;;;;;16.64;76.58;98035.75;1782486;79;25310;-92
2021/09/08 07:45:28;;;;;;;22.50;13.62;;;;;;;17.06;76.08;98043.83;1764031;78;25756;-92
2021/09/08 07:47:54;;;;;;;15.48;11.70;;;;;;;17.48;75.38;98041.27;1773312;79;25776;-91
2021/09/08 07:50:21;;;;;;;23.87;13.08;;;;;;;17.90;74.54;98046.52;1774754;79;27550;-91
2021/09/08 07:52:48;;;;;;;17.73;11.68;;;;;;;18.28;73.77;98038.52;1767886;78;25733;-92
2021/09/08 07:55:14;;;;;;;15.20;12.20;;;;;;;18.65;73.06;98040.84;1776874;79;25886;-89
2021/09/08 07:57:41;;;;;;;17.00;12.03;;;;;;;18.99;72.13;98038.92;1763926;79;25703;-91
2021/09/08 08:00:09;;;;;;;17.82;12.18;;;;;;;19.32;71.37;98038.08;1737883;81;25942;-92
2021/09/08 08:02:50;;;;;;;16.67;11.63;;;;;;;19.59;70.90;98040.38;1795463;79;27453;-90
2021/09/08 08:05:18;;;;;;;19.60;11.45;;;;;;;19.94;70.44;98038.62;1790204;78;25765;-91
2021/09/08 08:07:47;;;;;;;16.40;11.35;;;;;;;20.34;69.92;98036.89;1788129;78;25738;-89
2021/09/08 08:10:16;;;;;;;15.70;10.75;;;;;;;20.70;69.00;98040.00;1795433;78;26849;-88
2021/09/08 08:12:43;;;;;;;14.50;9.40;;;;;;;20.98;68.23;98034.20;1785186;78;25303;-89
2021/09/08 08:15:10;;;;;;;13.60;10.32;;;;;;;21.27;67.54;98036.61;1784207;78;27459;-90
2021/09/08 08:17:37;;;;;;;15.75;10.63;;;;;;;21.43;66.52;98012.28;1767667;78;26296;-90
2021/09/08 08:20:08;;;;;;;15.95;10.43;;;;;;;21.85;66.19;98035.58;1758173;81;25286;-88
2021/09/08 08:22:33;;;;;;;14.28;10.00;;;;;;;22.21;65.59;98032.44;1795374;78;26260;-90
2021/09/08 08:25:00;;;;;;;16.25;10.13;;;;;;;22.51;64.34;98026.98;1795672;79;25765;-89
2021/09/08 08:27:26;;;;;;;11.28;9.10;;;;;;;22.81;64.03;98035.03;1780654;78;28010;-88
2021/09/08 08:29:53;;;;;;;12.13;8.80;;;;;;;23.06;63.25;98029.52;1788171;79;25842;-87
2021/09/08 08:32:20;;;;;;;13.28;9.18;;;;;;;23.33;62.80;98034.14;1796052;79;25665;-88
2021/09/08 08:34:46;;;;;;;12.55;9.50;;;;;;;23.62;62.47;98028.88;1805821;78;25743;-89
2021/09/08 08:37:13;;;;;;;14.07;9.75;;;;;;;23.90;61.90;98025.20;1773827;79;25784;-89
2021/09/08 08:39:40;;;;;;;11.63;9.43;;;;;;;24.16;60.81;98031.40;1793035;79;27542;-89
2021/09/08 08:42:13;;;;;;;11.15;8.78;;;;;;;24.29;59.94;98028.05;1775215;80;25747;-88
2021/09/08 08:44:37;;;;;;;16.65;9.50;;;;;;;24.36;59.29;98028.58;1777469;80;25710;-86
2021/09/08 08:47:03;;;;;;;12.07;9.48;;;;;;;24.45;58.91;98023.27;1794627;79;26639;-87
2021/09/08 08:49:31;;;;;;;13.88;9.28;;;;;;;24.52;58.31;98017.69;1763367;80;25831;-88
2021/09/08 08:51:58;;;;;;;12.23;8.95;;;;;;;24.58;57.82;98018.50;1827115;78;27378;-87
2021/09/08 08:54:24;;;;;;;13.95;8.73;;;;;;;24.64;57.54;98016.78;1822497;78;25784;-83
2021/09/08 08:56:52;;;;;;;13.22;9.45;;;;;;;24.70;57.19;98011.50;1823963;78;25749;-86
2021/09/08 08:59:19;;;;;;;11.57;8.88;;;;;;;24.76;57.39;98015.86;1834549;78;25854;-85
2021/09/08 09:01:46;;;;;;;12.10;9.03;;;;;;;24.86;56.80;98010.83;1814916;78;25798;-86
2021/09/08 09:04:14;;;;;;;12.07;9.05;;;;;;;24.96;56.32;98012.71;1831703;78;27513;-86
2021/09/08 09:06:44;;;;;;;11.60;9.20;;;;;;;25.10;55.85;98010.93;1835103;77;25866;-86
2021/09/08 09:09:18;;;;;;;10.45;8.68;;;;;;;25.20;55.08;98012.21;1830587;78;25772;-85
2021/09/08 09:11:49;;;;;;;11.22;8.95;;;;;;;25.25;54.89;98010.76;1818568;78;26343;-86
2021/09/08 09:14:18;;;;;;;10.00;8.75;;;;;;;25.36;54.74;98015.06;1836166;77;25776;-86
2021/09/08 09:16:46;;;;;;;10.75;8.50;;;;;;;25.46;54.54;98012.22;1835683;78;27392;-87
2021/09/08 09:19:13;;;;;;;11.73;8.95;;;;;;;25.57;54.08;98007.95;1815145;77;25998;-87
2021/09/08 09:21:40;;;;;;;10.88;8.63;;;;;;;25.66;53.83;98003.45;1833900;78;25277;-87
2021/09/08 09:24:08;;;;;;;10.15;8.80;;;;;;;25.77;53.40;98002.21;1835826;78;25709;-87
2021/09/08 09:26:42;;;;;;;9.05;7.97;;;;;;;25.84;53.21;98002.11;1830708;78;25734;-87
2021/09/08 09:29:18;;;;;;;7.95;7.15;;;;;;;25.86;52.62;97998.22;1802792;78;28396;-86
2021/09/08 09:31:58;;;;;;;10.13;7.78;;;;;;;25.95;51.91;97994.53;1832200;78;25726;-87
2021/09/08 09:34:30;;;;;;;11.80;8.43;;;;;;;26.05;51.82;97994.39;1816905;78;25783;-87
2021/09/08 09:36:58;;;;;;;;;;;;;;;26.13;51.43;97987.36;1836303;78;26293;-88
2021/09/08 09:39:31;;;;;;;8.80;7.05;;;;;;;26.19;50.21;97988.95;1836016;78;25854;-88
2021/09/08 09:42:01;;;;;;;10.20;7.50;;;;;;;26.26;50.80;97988.56;1812775;77;27517;-87
2021/09/08 09:44:32;;;;;;;10.20;7.90;;;;;;;26.39;50.40;97978.16;1818087;78;25739;-83
2021/09/08 09:47:02;;;;;;;11.45;8.00;;;;;;;26.50;49.84;97973.55;1802982;78;25790;-85
2021/09/08 09:49:34;;;;;;;8.83;7.67;;;;;;;26.60;49.85;97969.80;1804819;77;25755;-85
2021/09/08 09:52:07;;;;;;;8.18;7.37;;;;;;;26.76;49.74;97973.97;1835024;77;25240;-87
2021/09/08 09:54:34;;;;;;;8.15;7.35;;;;;;;26.86;49.25;97975.18;1818611;77;27577;-87
2021/09/08 09:57:01;;;;;;;10.85;7.87;;;;;;;26.90;48.68;97968.48;1830600;77;25760;-81
2021/09/08 09:59:28;;;;;;;8.08;7.28;;;;;;;26.99;48.21;97964.48;1840848;77;25258;-87
2021/09/08 10:01:55;;;;;;;8.43;7.53;;;;;;;27.13;47.91;97968.92;1840811;77;25870;-89
2021/09/08 10:04:22;;;;;;;10.48;8.08;;;;;;;27.15;47.79;97967.24;1830815;77;25755;-86
2021/09/08 10:06:50;;;;;;;10.65;8.78;;;;;;;27.25;47.46;97962.89;1828241;77;27599;-87
2021/09/08 10:09:20;;;;;;;8.10;7.10;;;;;;;27.37;47.05;97961.83;1840700;77;26201;-87
2021/09/08 10:11:51;;;;;;;11.55;8.40;;;;;;;27.41;47.09;97958.67;1840820;77;25262;-87
2021/09/08 10:14:26;;;;;;;11.60;8.13;;;;;;;27.46;46.57;97951.66;1840736;77;25703;-81
2021/09/08 10:16:53;;;;;;;10.35;7.75;;;;;;;27.48;46.20;97950.80;1810159;77;25752;-87
2021/09/08 10:19:25;;;;;;;9.18;7.72;;;;;;;27.47;46.09;97949.15;1840939;77;28336;-87
2021/09/08 10:21:55;;;;;;;10.32;7.78;;;;;;;27.45;45.68;97943.64;1840844;77;25719;-86
2021/09/08 10:24:25;;;;;;;10.63;7.92;;;;;;;27.36;45.38;97938.00;1840842;77;25751;-89
2021/09/08 10:26:52;;;;;;;10.88;8.30;;;;;;;27.35;45.40;97941.08;1807740;77;26480;-88
2021/09/08 10:29:25;;;;;;;11.38;9.83;;;;;;;27.20;45.09;97942.19;1840858;77;26075;-87
2021/09/08 10:31:52;;;;;;;11.80;7.60;;;;;;;27.09;45.19;97936.02;1829975;77;28097;-86
2021/09/08 10:34:21;;;;;;;9.30;7.67;;;;;;;27.01;45.30;97939.50;1793818;77;25706;-86
2021/09/08 10:36:48;;;;;;;9.95;8.00;;;;;;;26.99;44.97;97932.61;1834426;77;25758;-86
2021/09/08 10:39:18;;;;;;;9.05;8.10;;;;;;;26.99;45.08;97936.21;1810576;77;25970;-88
2021/09/08 10:41:53;;;;;;;9.73;7.70;;;;;;;26.97;45.09;97926.55;1840993;77;25698;-86
2021/09/08 10:44:45;;;;;;;9.65;7.72;;;;;;;26.88;44.47;97925.84;1840775;77;27356;-86
2021/09/08 10:47:15;;;;;;;8.48;7.58;;;;;;;26.82;44.63;97927.61;1807738;77;25696;-86
2021/09/08 10:49:46;;;;;;;11.00;8.08;;;;;;;26.72;44.58;97931.95;1842021;77;25762;-86
2021/09/08 10:52:20;;;;;;;11.03;8.20;;;;;;;26.73;44.61;97932.20;1814284;77;26341;-88
2021/09/08 10:54:57;;;;;;;10.18;8.15;;;;;;;26.73;44.74;97931.64;1787478;77;25728;-86
2021/09/08 10:57:52;;;;;;;9.78;7.78;;;;;;;26.70;44.26;97922.55;1803646;77;28261;-87
2021/09/08 11:00:27;;;;;;;9.15;7.83;;;;;;;26.66;44.20;97929.02;1812500;77;25652;-85
2021/09/08 11:02:54;;;;;;;11.03;7.33;;;;;;;26.63;44.27;97923.52;1844541;77;25742;-87
2021/09/08 11:05:21;;;;;;;9.50;8.05;;;;;;;26.48;44.28;97914.08;1844324;77;25941;-87
2021/09/08 11:07:50;;;;;;;9.85;8.00;;;;;;;26.45;44.30;97914.67;1844504;77;25736;-88
2021/09/08 11:10:33;;;;;;;11.20;7.75;;;;;;;26.44;44.96;97911.67;1844446;77;27467;-87
2021/09/08 11:13:01;;;;;;;10.55;8.50;;;;;;;26.46;44.81;97912.98;1821830;77;25740;-87
2021/09/08 11:15:37;;;;;;;9.60;7.90;;;;;;;26.53;44.77;97914.83;1811160;77;25720;-87
2021/09/08 11:18:12;;;;;;;11.20;8.13;;;;;;;26.54;44.60;97908.73;1816140;77;26505;-86
2021/09/08 11:20:40;;;;;;;8.95;8.05;;;;;;;26.55;44.52;97908.98;1827195;77;25796;-84
2021/09/08 11:23:11;;;;;;;8.88;7.12;;;;;;;26.58;44.58;97906.98;1838695;77;27377;-85
2021/09/08 11:25:41;;;;;;;10.10;7.80;;;;;;;26.58;44.41;97902.00;1829221;77;25840;-86